M I D A S
Marine Information and Data Acquisition System
Tripno 2256 of the Zeeleeuw from 2012-01-18 07:40:16 to 2012-01-18 16:54:26
Back to CruiseResearch ActivitiesStationsMapUnderway DataData graphs

EquipmentUnitsComment
TimeDGPSUTC
LatitudeDGPSDM.mWGS84
LongitudeDGPSDM.mWGS84
TemperatureSBE03/SBE38deg celciusITS90
ConductivitySBE21S/mITS90
SalinitySBE21 Practical Salinity Units
ChlorophylAChelsea fluorimeterg/lCalibrated in Aceton
Missing or incorrect values are displayed as -999
Sea surface data collected by the RV Zeeleeuw from 2012-01-18 07:39:57 to 2012-01-18 17:03:28
Time Latitude Longitude Temperature Conductivity Salinity ChlorophylA
2012-01-18 07:41:02 51°13.645 2°55.962 13.4995 2.615935 19.474571 -2.458615
2012-01-18 07:42:03 51°13.672 2°55.858 13.529 2.608288 19.415239 -2.458615
2012-01-18 07:43:03 51°13.723 2°55.756 13.5061 2.602501 19.369145 -2.458615
2012-01-18 07:44:02 51°13.792 2°55.664 13.5565 2.600331 19.352988 -2.458615
2012-01-18 07:45:02 51°13.871 2°55.609 13.5652 2.599711 19.349491 -2.458615
2012-01-18 07:46:03 51°13.945 2°55.619 13.5648 2.581937 19.205543 -2.458615
2012-01-18 07:47:03 51°13.983 2°55.666 13.5903 2.579561 19.187312 -2.458615
2012-01-18 07:48:02 51°13.999 2°55.618 13.1292 2.549285 18.941176 -2.458615
2012-01-18 07:49:02 51°14.078 2°55.489 8.1374 3.17243 24.105046 -2.458615
2012-01-18 07:50:03 51°14.21 2°55.36 6.659 3.133511 29.57909 -2.458615
2012-01-18 07:51:03 51°14.361 2°55.224 6.3182 2.960168 28.81524 -2.458615
2012-01-18 07:52:01 51°14.511 2°55.079 6.187 2.912706 28.581775 -2.458615
2012-01-18 07:52:59 51°14.673 2°54.932 6.1227 2.815618 27.696878 -2.458615
2012-01-18 07:53:59 51°14.845 2°54.758 6.2291 2.892337 28.563112 -2.458615
2012-01-18 07:54:59 51°15.011 2°54.564 6.2845 3.027191 29.945463 -2.458615
2012-01-18 07:55:59 51°15.188 2°54.39 6.272 3.081495 30.503505 -2.458615
2012-01-18 07:56:59 51°15.373 2°54.232 6.2284 3.111184 30.857583 -2.458615
2012-01-18 07:57:59 51°15.531 2°54.023 6.2657 3.108805 30.854481 -2.458615
2012-01-18 07:58:59 51°15.675 2°53.793 6.3333 3.124322 30.991486 -2.458615
2012-01-18 07:59:59 51°15.824 2°53.572 6.3729 3.142632 31.144374 -2.458615
2012-01-18 08:00:59 51°15.998 2°53.399 6.4153 3.155875 31.255185 -2.458615
2012-01-18 08:01:59 51°16.187 2°53.253 6.4262 3.171083 31.394287 -2.458615
2012-01-18 08:02:59 51°16.378 2°53.113 6.4164 3.17936 31.485005 -2.458615
2012-01-18 08:03:59 51°16.561 2°52.953 6.4182 3.184429 31.549262 -2.458615
2012-01-18 08:04:59 51°16.745 2°52.796 6.4425 3.1925 31.626487 -2.458615
2012-01-18 08:06:00 51°16.942 2°52.66 6.4883 3.201087 31.698912 -2.458615
2012-01-18 08:06:59 51°17.132 2°52.526 6.5271 3.206467 31.716964 -2.458615
2012-01-18 08:07:59 51°17.344 2°52.465 6.5114 3.203983 31.668047 -2.458615
2012-01-18 08:08:59 51°17.56 2°52.425 6.501 3.19105 31.541236 -2.458615
2012-01-18 08:09:59 51°17.779 2°52.414 6.5041 3.187326 31.509121 -2.458615
2012-01-18 08:10:59 51°17.999 2°52.41 6.5027 3.187843 31.511325 -2.458615
2012-01-18 08:11:59 51°18.214 2°52.377 6.5002 3.187119 31.505992 -2.458615
2012-01-18 08:12:59 51°18.427 2°52.346 6.5228 3.182049 31.449652 -2.458615
2012-01-18 08:13:59 51°18.645 2°52.333 6.5325 3.173254 31.33798 -2.458615
2012-01-18 08:14:59 51°18.863 2°52.325 6.5353 3.16446 31.232452 -2.458615
2012-01-18 08:15:59 51°19.08 2°52.293 6.5443 3.161563 31.197391 -2.458615
2012-01-18 08:16:59 51°19.297 2°52.28 6.5643 3.162908 31.203529 -2.458615
2012-01-18 08:17:59 51°19.516 2°52.291 6.5907 3.166633 31.226234 -2.458615
2012-01-18 08:18:59 51°19.737 2°52.303 6.6495 3.173254 31.26855 -2.458615
2012-01-18 08:19:59 51°19.956 2°52.292 6.743 3.187634 31.365412 -2.458615
2012-01-18 08:20:59 51°20.175 2°52.289 6.8078 3.208327 31.50924 -2.458615
2012-01-18 08:22:00 51°20.396 2°52.296 6.8723 3.224985 31.63881 -2.458615
2012-01-18 08:22:59 51°20.609 2°52.326 6.9292 3.239367 31.730486 -2.458615
2012-01-18 08:23:59 51°20.827 2°52.356 6.956 3.251266 31.816515 -2.458615
2012-01-18 08:24:59 51°21.046 2°52.379 6.9633 3.256854 31.855547 -2.458615
2012-01-18 08:25:59 51°21.265 2°52.4 6.9684 3.258613 31.872025 -2.458615
2012-01-18 08:26:59 51°21.488 2°52.432 6.9759 3.259648 31.878928 -2.458615
2012-01-18 08:27:59 51°21.711 2°52.47 6.9904 3.263269 31.90696 -2.458615
2012-01-18 08:28:59 51°21.934 2°52.487 7.0122 3.266891 31.93239 -2.458615
2012-01-18 08:29:59 51°22.158 2°52.515 7.0218 3.27134 31.960727 -2.458615
2012-01-18 08:30:59 51°22.383 2°52.551 7.0253 3.273203 31.973987 -2.458615
2012-01-18 08:31:59 51°22.607 2°52.584 7.0338 3.274134 31.979753 -2.458615
2012-01-18 08:32:59 51°22.831 2°52.639 7.0399 3.277446 32.005232 -2.458615
2012-01-18 08:33:59 51°23.055 2°52.682 7.058 3.280447 32.03339 -2.458615
2012-01-18 08:34:59 51°23.28 2°52.735 7.0737 3.285621 32.072088 -2.458615
2012-01-18 08:35:59 51°23.5 2°52.817 7.0915 3.291416 32.118339 -2.458615
2012-01-18 08:36:59 51°23.722 2°52.905 7.0962 3.296176 32.155103 -2.458615
2012-01-18 08:37:59 51°23.943 2°52.975 7.0885 3.299074 32.189908 -2.458615
2012-01-18 08:38:59 51°24.165 2°53.031 7.0725 3.29866 32.194104 -2.458615
2012-01-18 08:39:59 51°24.385 2°53.097 7.0728 3.297418 32.191079 -2.458615
2012-01-18 08:40:59 51°24.605 2°53.168 7.076 3.298453 32.194468 -2.458615
2012-01-18 08:41:59 51°24.824 2°53.23 7.0823 3.299591 32.205049 -2.458615
2012-01-18 08:42:59 51°25.045 2°53.286 7.1079 3.301764 32.225091 -2.458615
2012-01-18 08:43:59 51°25.264 2°53.362 7.1262 3.303834 32.222307 -2.458615
2012-01-18 08:44:59 51°25.483 2°53.433 7.1369 3.308387 32.25765 -2.458615
2012-01-18 08:45:59 51°25.703 2°53.508 7.1476 3.311181 32.277434 -2.458615
2012-01-18 08:46:59 51°25.924 2°53.571 7.1613 3.314286 32.298827 -2.458615
2012-01-18 08:47:59 51°26.145 2°53.647 7.1689 3.317597 32.322444 -2.458615
2012-01-18 08:49:00 51°26.368 2°53.724 7.1668 3.318529 32.329031 -2.458615
2012-01-18 08:50:00 51°26.589 2°53.792 7.1647 3.318943 32.339587 -2.458615
2012-01-18 08:51:00 51°26.812 2°53.866 7.1586 3.318736 32.336481 -2.458615
2012-01-18 08:51:59 51°27.03 2°53.946 7.1642 3.34254 32.59467 -2.458615
2012-01-18 08:53:00 51°27.258 2°54.009 7.1722 3.344092 32.607079 -2.458615
2012-01-18 08:53:59 51°27.479 2°54.06 7.1898 3.346783 32.627413 -2.458615
2012-01-18 08:54:59 51°27.706 2°54.113 7.1962 3.35113 32.660381 -2.458615
2012-01-18 08:55:59 51°27.935 2°54.186 7.2223 3.352372 32.667666 -2.458615
2012-01-18 08:56:59 51°28.161 2°54.247 7.2768 3.358788 32.706301 -2.458615
2012-01-18 08:57:59 51°28.384 2°54.303 7.3104 3.370173 32.780076 -2.458615
2012-01-18 08:58:59 51°28.606 2°54.353 7.3372 3.377211 32.8323 -2.458615
2012-01-18 08:59:59 51°28.828 2°54.409 7.3543 3.383731 32.87274 -2.458615
2012-01-18 09:00:59 51°29.048 2°54.462 7.405 3.388699 32.909589 -2.458615
2012-01-18 09:02:00 51°29.273 2°54.483 7.4525 3.399774 32.977873 -2.458615
2012-01-18 09:03:00 51°29.494 2°54.493 7.4859 3.409814 33.045442 -2.458615
2012-01-18 09:03:59 51°29.714 2°54.495 7.5262 3.416749 33.087445 -2.458615
2012-01-18 09:04:59 51°29.936 2°54.484 7.5614 3.424719 33.136108 -2.458615
2012-01-18 09:05:59 51°30.155 2°54.473 7.5672 3.432689 33.192628 -2.458615
2012-01-18 09:06:59 51°30.378 2°54.465 7.5617 3.435174 33.214893 -2.458615
2012-01-18 09:07:59 51°30.601 2°54.459 7.5664 3.435484 33.221756 -2.458615
2012-01-18 09:09:00 51°30.825 2°54.44 7.5807 3.43683 33.229146 -2.458615
2012-01-18 09:09:59 51°31.045 2°54.422 7.5896 3.440039 33.251241 -2.458615
2012-01-18 09:10:59 51°31.269 2°54.408 7.614 3.442419 33.263555 -2.458615
2012-01-18 09:11:59 51°31.495 2°54.386 7.6271 3.446767 33.291666 -2.458615
2012-01-18 09:12:59 51°31.72 2°54.368 7.6354 3.449769 33.312388 -2.458615
2012-01-18 09:13:59 51°31.945 2°54.356 7.6477 3.451736 33.324649 -2.458615
2012-01-18 09:14:59 51°32.164 2°54.408 7.6772 3.454427 33.339377 -2.458615
2012-01-18 09:16:00 51°32.325 2°54.663 7.68 3.459396 33.369668 -2.458615
2012-01-18 09:16:59 51°32.449 2°54.937 7.6779 3.462708 33.397208 -2.458615
2012-01-18 09:18:00 51°32.532 2°55.14 7.6806 3.464675 33.420933 -2.458615
2012-01-18 09:19:00 51°32.589 2°55.281 7.6803 3.465503 33.42008 -2.458615
2012-01-18 09:19:59 51°32.621 2°55.37 7.6827 3.466124 33.41701 -2.458615
2012-01-18 09:20:59 51°32.645 2°55.433 7.6942 3.465296 33.402842 -2.458615
2012-01-18 09:21:59 51°32.67 2°55.476 7.692 3.465503 33.392698 -2.458615
2012-01-18 09:22:59 51°32.698 2°55.508 7.6981 3.466435 33.407085 -2.458615
2012-01-18 09:23:59 51°32.733 2°55.517 7.7019 3.464261 33.377638 -2.458615
2012-01-18 09:25:03 51°32.766 2°55.491 7.7008 -999 -999 -2.018535
2012-01-18 09:26:02 51°32.788 2°55.473 7.755 3.462294 33.367171 -2.458615
2012-01-18 09:27:03 51°32.773 2°55.396 7.7317 3.461155 33.31975 -2.458615
2012-01-18 09:28:03 51°32.717 2°55.343 7.7377 3.460844 33.329631 -2.458615
2012-01-18 09:29:03 51°32.682 2°55.321 7.717 3.460637 33.337984 -2.458615
2012-01-18 09:30:03 51°32.712 2°55.338 7.7199 3.46012 33.328042 -2.458615
2012-01-18 09:31:01 51°32.752 2°55.322 7.7549 3.459913 33.325827 -2.458615
2012-01-18 09:32:00 51°32.78 2°55.291 7.7402 3.458878 33.315633 -2.458615
2012-01-18 09:32:59 51°32.773 2°55.237 7.7398 3.458463 33.301524 -2.458615
2012-01-18 09:33:59 51°32.68 2°55.193 7.7589 3.458981 33.30882 -2.458615
2012-01-18 09:34:59 51°32.574 2°55.105 7.7641 3.458153 33.280622 -2.458615
2012-01-18 09:36:00 51°32.487 2°54.993 7.7572 3.458463 33.292731 -2.458615
2012-01-18 09:37:00 51°32.486 2°54.928 7.7497 3.457428 33.273755 -2.458615
2012-01-18 09:37:59 51°32.511 2°54.906 7.7354 3.456807 33.28469 -2.458615
2012-01-18 09:38:59 51°32.545 2°54.912 7.7559 3.456807 33.289966 -2.458615
2012-01-18 09:39:59 51°32.58 2°54.937 7.7383 3.456703 33.278309 -2.458615
2012-01-18 09:41:00 51°32.614 2°54.968 7.7471 3.456186 33.286841 -2.458615
2012-01-18 09:41:59 51°32.64 2°55.006 7.7075 3.455979 33.289024 -2.458615
2012-01-18 09:43:00 51°32.662 2°55.049 7.7311 3.455772 33.28505 -2.458615
2012-01-18 09:44:00 51°32.676 2°55.089 7.7135 3.455772 33.300009 -2.458615
2012-01-18 09:45:03 51°32.685 2°55.126 7.7043 3.455358 33.292057 -2.458615
2012-01-18 09:46:03 51°32.694 2°55.151 7.7023 3.455255 33.298871 -2.458615
2012-01-18 09:47:02 51°32.699 2°55.171 7.7022 3.45453 33.296397 -2.458615
2012-01-18 09:48:03 51°32.708 2°55.178 7.7042 3.454219 33.292193 -2.458615
2012-01-18 09:49:02 51°32.72 2°55.168 7.6949 3.454219 33.292193 -2.458615
2012-01-18 09:50:02 51°32.727 2°55.151 7.6949 3.453495 33.288837 -2.458615
2012-01-18 09:51:03 51°32.746 2°55.155 7.6914 3.452977 33.286818 -2.458615
2012-01-18 09:52:02 51°32.786 2°55.223 7.6943 3.452563 33.276223 -2.458615
2012-01-18 09:53:00 51°32.814 2°55.277 7.6967 3.452563 33.272704 -2.458615
2012-01-18 09:53:59 51°32.841 2°55.314 7.7013 3.452149 33.266513 -2.458615
2012-01-18 09:54:59 51°32.811 2°55.37 7.7028 3.448422 33.218727 -2.458615
2012-01-18 09:55:59 51°32.676 2°55.329 7.7005 3.448836 33.231063 -2.458615
2012-01-18 09:56:59 51°32.521 2°55.238 7.6981 3.447491 33.220177 -2.458615
2012-01-18 09:58:00 51°32.442 2°55.168 7.6928 3.444799 33.191377 -2.458615
2012-01-18 09:59:00 51°32.437 2°55.145 7.6719 3.441797 33.174172 -2.458615
2012-01-18 09:59:59 51°32.452 2°55.147 7.6677 3.440348 33.164803 -2.458615
2012-01-18 10:01:00 51°32.44 2°55.19 7.6684 3.439624 33.161434 -2.458615
2012-01-18 10:02:00 51°32.451 2°55.259 7.6647 3.439313 33.156354 -2.458615
2012-01-18 10:02:59 51°32.483 2°55.275 7.673 3.438692 33.154093 -2.458615
2012-01-18 10:04:01 51°32.516 2°55.252 7.6628 3.43745 33.142549 -2.458615
2012-01-18 10:05:03 51°32.54 2°55.216 7.6669 3.436829 33.135022 -2.458615
2012-01-18 10:06:03 51°32.55 2°55.174 7.6655 3.43569 33.123709 -2.458615
2012-01-18 10:07:03 51°32.543 2°55.147 7.6595 3.435069 33.118814 -2.458615
2012-01-18 10:08:03 51°32.526 2°55.134 7.6582 3.434448 33.115671 -2.458615
2012-01-18 10:09:03 51°32.515 2°55.118 7.6583 3.461156 33.405322 -2.458615
2012-01-18 10:10:03 51°32.514 2°55.098 7.6593 3.460638 33.399773 -2.458615
2012-01-18 10:11:03 51°32.52 2°55.08 7.656 3.460224 33.391797 -2.458615
2012-01-18 10:12:03 51°32.53 2°55.077 7.6558 3.459707 33.388017 -2.458615
2012-01-18 10:13:01 51°32.547 2°55.086 7.6531 3.459707 33.391553 -2.458615
2012-01-18 10:14:03 51°32.558 2°55.102 7.6607 3.459085 33.388432 -2.458615
2012-01-18 10:15:03 51°32.557 2°55.12 7.6559 3.458982 33.386438 -2.458615
2012-01-18 10:16:03 51°32.547 2°55.114 7.6566 3.458878 33.38356 -2.458615
2012-01-18 10:17:03 51°32.538 2°55.086 7.6574 3.458568 33.38023 -2.458615
2012-01-18 10:18:03 51°32.53 2°55.071 7.6563 3.458982 33.382017 -2.458615
2012-01-18 10:19:03 51°32.514 2°55.064 7.6577 3.458257 33.376017 -2.458615
2012-01-18 10:20:03 51°32.498 2°55.054 7.6545 3.458154 33.374908 -2.458615
2012-01-18 10:21:03 51°32.484 2°55.032 7.6594 3.458464 33.382657 -2.458615
2012-01-18 10:22:03 51°32.471 2°55.005 7.6535 3.458154 33.375791 -2.458615
2012-01-18 10:23:03 51°32.47 2°54.987 7.6551 3.457843 33.37423 -2.458615
2012-01-18 10:24:03 51°32.48 2°54.987 7.6559 3.457843 33.370695 -2.458615
2012-01-18 10:25:03 51°32.491 2°54.99 7.6582 3.457533 33.370017 -2.458615
2012-01-18 10:26:03 51°32.506 2°54.998 7.6551 3.457429 33.368023 -2.458615
2012-01-18 10:27:03 51°32.518 2°55.004 7.6547 3.457533 33.367366 -2.458615
2012-01-18 10:28:03 51°32.523 2°55.001 7.6574 3.457326 33.366914 -2.458615
2012-01-18 10:29:03 51°32.53 2°54.989 7.6609 3.457222 33.364037 -2.458615
2012-01-18 10:30:03 51°32.538 2°54.978 7.6589 3.457119 33.364694 -2.458615
2012-01-18 10:31:03 51°32.552 2°54.982 7.6578 3.457015 33.360934 -2.458615
2012-01-18 10:32:03 51°32.59 2°55.027 7.653 3.456808 33.356066 -2.458615
2012-01-18 10:33:01 51°32.621 2°55.071 7.6626 3.456911 33.359825 -2.458615
2012-01-18 10:34:00 51°32.636 2°55.121 7.656 3.457015 33.357401 -2.458615
2012-01-18 10:34:59 51°32.64 2°55.167 7.6594 3.456187 33.344995 -2.458615
2012-01-18 10:35:59 51°32.613 2°55.198 7.6571 3.456187 33.344995 -2.458615
2012-01-18 10:37:00 51°32.568 2°55.17 7.6514 3.455773 33.344971 -2.458615
2012-01-18 10:38:00 51°32.555 2°55.046 7.6509 3.455255 33.345604 -2.458615
2012-01-18 10:39:00 51°32.487 2°54.87 7.653 3.454531 33.341369 -2.458615
2012-01-18 10:40:00 51°32.377 2°54.669 7.6585 3.454634 33.337181 -2.458615
2012-01-18 10:41:00 51°32.267 2°54.444 7.6574 3.454634 33.330121 -2.458615
2012-01-18 10:42:00 51°32.169 2°54.201 7.6634 3.453702 33.322784 -2.458615
2012-01-18 10:43:00 51°32.088 2°53.937 7.6695 3.453495 33.319683 -2.458615
2012-01-18 10:44:00 51°31.996 2°53.684 7.6888 3.454323 33.319736 -2.458615
2012-01-18 10:45:00 51°31.896 2°53.436 7.7019 3.456704 33.332893 -2.458615
2012-01-18 10:45:59 51°31.795 2°53.203 7.7234 3.459292 33.34297 -2.458615
2012-01-18 10:47:00 51°31.689 2°52.962 7.7384 3.462397 33.358579 -2.458615
2012-01-18 10:47:59 51°31.596 2°52.718 7.7654 3.465192 33.369973 -2.458615
2012-01-18 10:48:59 51°31.505 2°52.467 7.7787 3.469022 33.390666 -2.458615
2012-01-18 10:50:00 51°31.439 2°52.359 7.7881 3.472128 33.411529 -2.458615
2012-01-18 10:51:00 51°31.427 2°52.413 7.7932 3.474095 33.416686 -2.458615
2012-01-18 10:51:59 51°31.452 2°52.487 7.7999 3.475544 33.426003 -2.458615
2012-01-18 10:52:59 51°31.481 2°52.544 7.8002 3.476372 33.430445 -2.458615
2012-01-18 10:54:00 51°31.518 2°52.602 7.7975 3.476579 33.432657 -2.458615
2012-01-18 10:54:59 51°31.586 2°52.631 7.7978 3.476062 33.432415 -2.458615
2012-01-18 10:56:00 51°31.634 2°52.613 7.7937 3.475544 33.43041 -2.458615
2012-01-18 10:57:00 51°31.663 2°52.621 7.803 3.475026 33.427524 -2.458615
2012-01-18 10:58:00 51°31.693 2°52.635 7.79 3.474923 33.425536 -2.458615
2012-01-18 10:59:00 51°31.723 2°52.652 7.7943 3.476993 33.453837 -2.458615
2012-01-18 11:00:00 51°31.754 2°52.662 7.7887 3.47689 33.450966 -2.458615
2012-01-18 11:01:00 51°31.764 2°52.593 7.7907 3.473474 33.418862 -2.458615
2012-01-18 11:02:00 51°31.681 2°52.565 7.7919 3.473163 33.41378 -2.458615
2012-01-18 11:03:00 51°31.557 2°52.557 7.7962 3.473577 33.407632 -2.458615
2012-01-18 11:03:59 51°31.43 2°52.548 7.7978 3.474405 33.415599 -2.458615
2012-01-18 11:05:00 51°31.301 2°52.489 7.7994 3.475026 33.419592 -2.458615
2012-01-18 11:06:00 51°31.216 2°52.457 7.8015 3.47544 33.41873 -2.458615
2012-01-18 11:07:00 51°31.225 2°52.468 7.801 3.475233 33.419161 -2.458615
2012-01-18 11:08:01 51°31.255 2°52.484 7.7994 3.47513 33.417174 -2.458615
2012-01-18 11:09:00 51°31.279 2°52.494 7.8032 3.474923 33.414082 -2.458615
2012-01-18 11:09:59 51°31.286 2°52.507 7.8033 3.475233 33.414757 -2.458615
2012-01-18 11:11:00 51°31.283 2°52.516 7.8092 3.47513 33.414532 -2.458615
2012-01-18 11:12:00 51°31.282 2°52.519 7.8053 3.475026 33.412545 -2.458615
2012-01-18 11:13:00 51°31.285 2°52.514 7.8043 3.475026 33.412545 -2.458615
2012-01-18 11:13:59 51°31.285 2°52.51 7.8076 3.474923 33.410559 -2.458615
2012-01-18 11:15:00 51°31.287 2°52.503 7.8091 3.475026 33.409903 -2.458615
2012-01-18 11:16:00 51°31.287 2°52.497 7.8065 3.474923 33.407917 -2.458615
2012-01-18 11:17:00 51°31.288 2°52.501 7.8087 3.474819 33.407692 -2.458615
2012-01-18 11:18:00 51°31.285 2°52.51 7.8134 3.474612 33.405481 -2.458615
2012-01-18 11:19:00 51°31.284 2°52.517 7.8103 3.474509 33.403495 -2.458615
2012-01-18 11:19:59 51°31.284 2°52.516 7.8079 3.474095 33.400833 -2.458615
2012-01-18 11:21:00 51°31.284 2°52.514 7.8098 3.473991 33.400607 -2.458615
2012-01-18 11:22:00 51°31.284 2°52.513 7.8111 3.473887 33.397741 -2.458615
2012-01-18 11:23:00 51°31.285 2°52.51 7.8065 3.47368 33.39553 -2.458615
2012-01-18 11:24:00 51°31.286 2°52.506 7.8065 3.473266 33.392868 -2.458615
2012-01-18 11:25:00 51°31.286 2°52.508 7.8105 3.472956 33.391311 -2.458615
2012-01-18 11:26:00 51°31.284 2°52.514 7.8053 3.473163 33.390002 -2.458615
2012-01-18 11:26:59 51°31.285 2°52.514 7.8053 3.472852 33.390205 -2.458615
2012-01-18 11:28:00 51°31.285 2°52.508 7.8068 3.472645 33.386234 -2.458615
2012-01-18 11:29:00 51°31.287 2°52.504 7.8084 3.472645 33.387114 -2.458615
2012-01-18 11:30:00 51°31.287 2°52.502 7.8097 3.472645 33.386234 -2.458615
2012-01-18 11:31:00 51°31.287 2°52.506 7.8083 3.472645 33.384474 -2.458615
2012-01-18 11:32:00 51°31.286 2°52.509 7.8098 3.472438 33.382263 -2.458615
2012-01-18 11:33:00 51°31.286 2°52.51 7.8072 3.472542 33.37985 -2.458615
2012-01-18 11:33:59 51°31.286 2°52.51 7.8089 3.472024 33.376961 -2.458615
2012-01-18 11:35:00 51°31.287 2°52.509 7.8155 3.472024 33.376082 -2.458615
2012-01-18 11:36:00 51°31.286 2°52.511 7.8127 3.472128 33.375428 -2.458615
2012-01-18 11:37:00 51°31.285 2°52.517 7.8129 3.47192 33.374097 -2.458615
2012-01-18 11:38:00 51°31.284 2°52.517 7.812 3.47192 33.374976 -2.458615
2012-01-18 11:39:00 51°31.284 2°52.514 7.8125 3.471403 33.370328 -2.458615
2012-01-18 11:40:00 51°31.285 2°52.51 7.8098 3.471196 33.368118 -2.458615
2012-01-18 11:41:00 51°31.287 2°52.505 7.8113 3.471092 33.364374 -2.458615
2012-01-18 11:42:00 51°31.288 2°52.503 7.8119 3.470989 33.363269 -2.458615
2012-01-18 11:42:59 51°31.288 2°52.507 7.8134 3.470989 33.36239 -2.458615
2012-01-18 11:44:00 51°31.286 2°52.51 7.8112 3.470782 33.361937 -2.458615
2012-01-18 11:45:00 51°31.285 2°52.514 7.812 3.470575 33.358848 -2.458615
2012-01-18 11:46:00 51°31.286 2°52.512 7.8133 3.470368 33.357516 -2.458615
2012-01-18 11:47:00 51°31.286 2°52.511 7.812 3.470264 33.354653 -2.458615
2012-01-18 11:48:00 51°31.287 2°52.513 7.8124 3.470057 33.3542 -2.458615
2012-01-18 11:49:00 51°31.285 2°52.517 7.8136 3.469746 33.34649 -2.458615
2012-01-18 11:50:00 51°31.283 2°52.518 7.8142 3.469436 33.345811 -2.458615
2012-01-18 11:51:00 51°31.286 2°52.509 7.8114 3.469125 33.345131 -2.458615
2012-01-18 11:52:00 51°31.289 2°52.5 7.8119 3.468918 33.340284 -2.458615
2012-01-18 11:53:00 51°31.29 2°52.503 7.8158 3.468918 33.342042 -2.458615
2012-01-18 11:54:00 51°31.286 2°52.516 7.8123 3.468711 33.337196 -2.458615
2012-01-18 11:54:59 51°31.285 2°52.521 7.8145 3.468815 33.337422 -2.458615
2012-01-18 11:56:00 51°31.284 2°52.521 7.8149 3.468194 33.332548 -2.458615
2012-01-18 11:56:59 51°31.284 2°52.522 7.8146 3.467987 33.330338 -2.458615
2012-01-18 11:58:00 51°31.284 2°52.519 7.8137 3.467572 33.325917 -2.458615
2012-01-18 11:58:59 51°31.283 2°52.516 7.8106 3.467469 33.32569 -2.458615
2012-01-18 12:00:00 51°31.274 2°52.509 7.8124 3.467365 33.324585 -2.458615
2012-01-18 12:00:59 51°31.266 2°52.502 7.8169 3.467469 33.326568 -2.458615
2012-01-18 12:02:00 51°31.254 2°52.496 7.8182 3.467469 33.319544 -2.458615
2012-01-18 12:03:00 51°31.249 2°52.493 7.8145 3.467365 33.320195 -2.458615
2012-01-18 12:04:00 51°31.244 2°52.493 7.8155 3.467262 33.319968 -2.458615
2012-01-18 12:05:00 51°31.238 2°52.5 7.8187 3.466744 33.312687 -2.458615
2012-01-18 12:06:00 51°31.25 2°52.517 7.8174 3.466537 33.310477 -2.458615
2012-01-18 12:07:00 51°31.23 2°52.546 7.8242 3.466641 33.307195 -2.458615
2012-01-18 12:08:00 51°31.161 2°52.467 7.8171 3.464984 33.287765 -2.458615
2012-01-18 12:09:00 51°31.029 2°52.3 7.8161 3.462707 33.271351 -2.458615
2012-01-18 12:09:59 51°30.881 2°52.124 7.8235 3.460533 33.243772 -2.458615
2012-01-18 12:11:00 51°30.735 2°51.924 7.8333 3.461361 33.245602 -2.458615
2012-01-18 12:11:59 51°30.587 2°51.755 7.8437 3.46281 33.253182 -2.458615
2012-01-18 12:12:59 51°30.44 2°51.564 7.8511 3.463742 33.252613 -2.458615
2012-01-18 12:14:00 51°30.292 2°51.372 7.8586 3.464363 33.253984 -2.458615
2012-01-18 12:15:00 51°30.139 2°51.2 7.8615 3.464363 33.24786 -2.458615
2012-01-18 12:16:00 51°29.993 2°51.005 7.8618 3.464259 33.240634 -2.458615
2012-01-18 12:17:00 51°29.842 2°50.82 7.8655 3.463845 33.241468 -2.458615
2012-01-18 12:18:00 51°29.694 2°50.629 7.8811 3.463845 33.237095 -2.458615
2012-01-18 12:19:00 51°29.565 2°50.406 7.8855 3.465398 33.239655 -2.458615
2012-01-18 12:19:59 51°29.433 2°50.19 7.896 3.466847 33.250724 -2.458615
2012-01-18 12:21:00 51°29.289 2°49.983 7.8878 3.496145 33.558632 -2.458615
2012-01-18 12:22:00 51°29.149 2°49.778 7.8752 3.494695 33.547584 -2.458615
2012-01-18 12:23:00 51°29.018 2°49.553 7.8644 3.4919 33.530995 -2.458615
2012-01-18 12:24:00 51°28.881 2°49.346 7.8535 3.478442 33.394471 -2.458615
2012-01-18 12:25:00 51°28.738 2°49.139 7.8448 3.476061 33.380495 -2.458615
2012-01-18 12:25:59 51°28.606 2°48.922 7.8335 3.47192 33.347734 -2.458615
2012-01-18 12:26:59 51°28.473 2°48.705 7.8189 3.469022 33.327339 -2.458615
2012-01-18 12:28:00 51°28.335 2°48.486 7.794 3.465502 33.306448 -2.458615
2012-01-18 12:29:00 51°28.192 2°48.283 7.7662 3.461568 33.284632 -2.458615
2012-01-18 12:30:00 51°28.055 2°48.065 7.7461 3.457221 33.258373 -2.458615
2012-01-18 12:30:59 51°27.924 2°47.849 7.7263 3.452666 33.230757 -2.458615
2012-01-18 12:32:00 51°27.781 2°47.637 7.7052 3.448215 33.204225 -2.458615
2012-01-18 12:32:59 51°27.646 2°47.427 7.6858 3.46923 33.448503 -2.458615
2012-01-18 12:34:00 51°27.51 2°47.204 7.6704 3.464261 33.409424 -2.458615
2012-01-18 12:35:00 51°27.372 2°46.994 7.673 3.460949 33.382771 -2.458615
2012-01-18 12:36:00 51°27.238 2°46.77 7.6682 3.459706 33.372995 -2.458615
2012-01-18 12:37:00 51°27.099 2°46.557 7.6783 3.458775 33.364779 -2.458615
2012-01-18 12:38:00 51°26.948 2°46.368 7.6823 3.459189 33.363918 -2.458615
2012-01-18 12:39:00 51°26.799 2°46.176 7.6889 3.46012 33.367718 -2.458615
2012-01-18 12:39:59 51°26.659 2°45.973 7.6894 3.460741 33.371722 -2.458615
2012-01-18 12:41:00 51°26.504 2°45.783 7.6854 3.460534 33.36774 -2.458615
2012-01-18 12:41:59 51°26.352 2°45.605 7.6741 3.459603 33.363939 -2.458615
2012-01-18 12:43:00 51°26.202 2°45.401 7.6563 3.456601 33.343253 -2.458615
2012-01-18 12:43:59 51°26.046 2°45.228 7.6471 3.453599 33.328734 -2.458615
2012-01-18 12:44:59 51°25.891 2°45.049 7.6344 3.451632 33.310301 -2.458615
2012-01-18 12:46:00 51°25.741 2°44.85 7.6281 3.449665 33.298922 -2.458615
2012-01-18 12:47:00 51°25.59 2°44.654 7.6327 3.448423 33.290897 -2.458615
2012-01-18 12:48:00 51°25.435 2°44.47 7.6412 3.44863 33.289589 -2.458615
2012-01-18 12:49:00 51°25.282 2°44.279 7.6443 3.449665 33.295393 -2.458615
2012-01-18 12:50:00 51°25.126 2°44.103 7.6513 3.450493 33.29986 -2.458615
2012-01-18 12:50:59 51°24.967 2°44.018 7.6498 3.451528 33.306545 -2.458615
2012-01-18 12:52:00 51°24.894 2°44.009 7.6469 3.451839 33.310755 -2.458615
2012-01-18 12:52:59 51°24.867 2°43.972 7.6487 3.451425 33.307199 -2.458615
2012-01-18 12:54:00 51°24.833 2°43.911 7.6458 3.4507 33.305608 -2.458615
2012-01-18 12:55:00 51°24.769 2°43.82 7.6469 3.450597 33.301852 -2.458615
2012-01-18 12:56:00 51°24.727 2°43.768 7.6447 3.45039 33.299632 -2.458615
2012-01-18 12:57:00 51°24.687 2°43.736 7.6417 3.449872 33.296731 -2.458615
2012-01-18 12:58:00 51°24.678 2°43.713 7.6375 3.449148 33.292491 -2.458615
2012-01-18 12:59:01 51°24.694 2°43.721 7.6433 3.44863 33.289589 -2.458615
2012-01-18 13:00:00 51°24.706 2°43.734 7.6399 3.44832 33.288905 -2.458615
2012-01-18 13:01:00 51°24.719 2°43.74 7.6366 3.448009 33.285576 -2.458615
2012-01-18 13:02:00 51°24.734 2°43.663 7.6355 3.447491 33.282673 -2.458615
2012-01-18 13:02:59 51°24.679 2°43.583 7.6399 3.448527 33.293772 -2.458615
2012-01-18 13:04:00 51°24.643 2°43.614 7.6443 3.449458 33.293174 -2.458615
2012-01-18 13:05:00 51°24.644 2°43.632 7.6487 3.448837 33.28299 -2.458615
2012-01-18 13:06:00 51°24.652 2°43.648 7.6462 3.451114 33.306517 -2.458615
2012-01-18 13:07:00 51°24.655 2°43.67 7.6371 3.450804 33.306717 -2.458615
2012-01-18 13:08:00 51°24.662 2°43.685 7.6419 3.450493 33.302506 -2.458615
2012-01-18 13:09:00 51°24.666 2°43.7 7.6423 3.450183 33.301824 -2.458615
2012-01-18 13:10:00 51°24.677 2°43.709 7.6423 3.450079 33.299832 -2.458615
2012-01-18 13:11:00 51°24.691 2°43.713 7.6426 3.450079 33.301596 -2.458615
2012-01-18 13:12:00 51°24.704 2°43.717 7.643 3.449872 33.298495 -2.458615
2012-01-18 13:13:00 51°24.69 2°43.756 7.6463 3.450079 33.300714 -2.458615
2012-01-18 13:14:00 51°24.654 2°43.773 7.6513 3.4507 33.302079 -2.458615
2012-01-18 13:15:00 51°24.624 2°43.742 7.6453 3.450907 33.30518 -2.458615
2012-01-18 13:15:59 51°24.63 2°43.704 7.6395 3.450597 33.307145 -2.458615
2012-01-18 13:17:00 51°24.644 2°43.698 7.6464 3.450183 33.304471 -2.458615
2012-01-18 13:18:00 51°24.656 2°43.701 7.6361 3.450183 33.304471 -2.458615
2012-01-18 13:19:00 51°24.666 2°43.706 7.6419 3.449872 33.306436 -2.458615
2012-01-18 13:20:00 51°24.676 2°43.709 7.6385 3.449872 33.303788 -2.458615
2012-01-18 13:20:59 51°24.688 2°43.711 7.6391 3.450079 33.305126 -2.458615
2012-01-18 13:22:00 51°24.7 2°43.716 7.6422 3.450183 33.305353 -2.458615
2012-01-18 13:23:00 51°24.71 2°43.721 7.6381 3.45039 33.30669 -2.458615
2012-01-18 13:24:00 51°24.72 2°43.724 7.6392 3.450286 33.307345 -2.458615
2012-01-18 13:25:00 51°24.733 2°43.676 7.6451 3.450286 33.308228 -2.458615
2012-01-18 13:26:00 51°24.72 2°43.612 7.6409 3.450493 33.310447 -2.458615
2012-01-18 13:27:00 51°24.613 2°43.562 7.654 3.449355 33.294711 -2.458615
2012-01-18 13:28:00 51°24.562 2°43.541 7.6525 3.451114 33.300343 -2.458615
2012-01-18 13:29:03 51°24.588 2°43.529 7.653 3.450804 33.297897 -2.458615
2012-01-18 13:30:03 51°24.608 2°43.511 7.6471 3.450286 33.295877 -2.458615
2012-01-18 13:31:02 51°24.604 2°43.569 7.6684 3.449769 33.286804 -2.458615
2012-01-18 13:32:00 51°24.616 2°43.647 7.6745 3.450286 33.275608 -2.458615
2012-01-18 13:33:00 51°24.625 2°43.672 7.6653 3.451114 33.277432 -2.458615
2012-01-18 13:34:00 51°24.631 2°43.677 7.6632 3.451011 33.278085 -2.458615
2012-01-18 13:35:00 51°24.634 2°43.686 7.655 3.450907 33.28138 -2.458615
2012-01-18 13:36:00 51°24.64 2°43.691 7.6649 3.450907 33.285785 -2.458615
2012-01-18 13:37:00 51°24.649 2°43.694 7.6588 3.451011 33.282489 -2.458615
2012-01-18 13:38:00 51°24.656 2°43.7 7.6666 3.450804 33.289082 -2.458615
2012-01-18 13:39:00 51°24.662 2°43.706 7.6505 3.450907 33.285785 -2.458615
2012-01-18 13:40:00 51°24.669 2°43.71 7.6628 3.450907 33.289309 -2.458615
2012-01-18 13:41:00 51°24.675 2°43.716 7.6546 3.451114 33.290646 -2.458615
2012-01-18 13:42:00 51°24.682 2°43.72 7.6578 3.451011 33.290418 -2.458615
2012-01-18 13:43:00 51°24.689 2°43.724 7.6618 3.451218 33.292636 -2.458615
2012-01-18 13:44:00 51°24.695 2°43.727 7.657 3.451218 33.294399 -2.458615
2012-01-18 13:45:00 51°24.701 2°43.735 7.6581 3.451425 33.29221 -2.458615
2012-01-18 13:46:00 51°24.687 2°43.763 7.661 3.451425 33.291329 -2.458615
2012-01-18 13:47:00 51°24.653 2°43.79 7.6624 3.451321 33.291983 -2.458615
2012-01-18 13:48:00 51°24.604 2°43.743 7.6478 3.452874 33.291874 -2.458615
2012-01-18 13:49:00 51°24.606 2°43.721 7.6379 3.4507 33.297669 -2.458615
2012-01-18 13:49:59 51°24.619 2°43.71 7.6355 3.449355 33.292946 -2.458615
2012-01-18 13:51:00 51°24.633 2°43.693 7.6455 3.448527 33.290243 -2.458615
2012-01-18 13:52:00 51°24.648 2°43.665 7.6466 3.44863 33.290471 -2.458615
2012-01-18 13:53:00 51°24.657 2°43.654 7.6487 3.44863 33.283416 -2.458615
2012-01-18 13:54:03 51°24.652 2°43.671 7.6429 3.448837 33.287398 -2.458615
2012-01-18 13:55:01 51°24.645 2°43.68 7.6346 3.448837 33.291808 -2.458615
2012-01-18 13:56:00 51°24.667 2°43.683 7.6385 3.44863 33.289589 -2.458615
2012-01-18 13:57:01 51°24.657 2°43.67 7.6349 3.448837 33.290926 -2.458615
2012-01-18 13:58:03 51°24.671 2°43.692 7.6367 3.448734 33.29158 -2.458615
2012-01-18 13:59:01 51°24.676 2°43.712 7.6439 3.449148 33.294255 -2.458615
2012-01-18 14:00:00 51°24.675 2°43.724 7.6453 3.449458 33.292292 -2.458615
2012-01-18 14:01:00 51°24.673 2°43.733 7.642 3.449562 33.294284 -2.458615
2012-01-18 14:02:00 51°24.675 2°43.74 7.6397 3.449665 33.294511 -2.458615
2012-01-18 14:03:00 51°24.676 2°43.745 7.6327 3.449458 33.29141 -2.458615
2012-01-18 14:03:59 51°24.678 2°43.748 7.6346 3.449251 33.292719 -2.458615
2012-01-18 14:05:00 51°24.682 2°43.749 7.637 3.448837 33.291808 -2.458615
2012-01-18 14:05:59 51°24.685 2°43.748 7.6349 3.448734 33.288934 -2.458615
2012-01-18 14:07:00 51°24.689 2°43.749 7.6299 3.448734 33.288934 -2.458615
2012-01-18 14:08:00 51°24.692 2°43.748 7.6357 3.44832 33.287141 -2.458615
2012-01-18 14:09:00 51°24.696 2°43.746 7.6315 3.448423 33.284723 -2.458615
2012-01-18 14:10:00 51°24.681 2°43.78 7.6319 3.448423 33.286487 -2.458615
2012-01-18 14:10:59 51°24.61 2°43.901 7.6409 3.44863 33.279889 -2.458615
2012-01-18 14:12:00 51°24.468 2°44.053 7.6229 3.447905 33.280057 -2.458615
2012-01-18 14:12:59 51°24.312 2°44.212 7.623 3.444903 33.253165 -2.458615
2012-01-18 14:14:00 51°24.139 2°44.378 7.5948 3.443868 33.234143 -2.458615
2012-01-18 14:15:00 51°23.957 2°44.507 7.5885 3.439935 33.221034 -2.458615
2012-01-18 14:15:59 51°23.771 2°44.608 7.5845 3.43538 33.183632 -2.458615
2012-01-18 14:17:00 51°23.578 2°44.713 7.5604 3.431447 33.154638 -2.458615
2012-01-18 14:17:59 51°23.396 2°44.835 7.5441 3.427617 33.125859 -2.458615
2012-01-18 14:18:59 51°23.217 2°44.981 7.525 3.421406 33.078544 -2.458615
2012-01-18 14:20:00 51°23.036 2°45.126 7.4983 3.418301 33.050483 -2.458615
2012-01-18 14:20:59 51°22.857 2°45.264 7.4922 3.413747 33.030561 -2.458615
2012-01-18 14:21:59 51°22.676 2°45.408 7.4921 3.410331 33.002651 -2.458615
2012-01-18 14:23:00 51°22.489 2°45.546 7.4829 3.408468 32.990535 -2.458615
2012-01-18 14:24:00 51°22.33 2°45.725 7.4709 3.407433 32.98117 -2.458615
2012-01-18 14:25:01 51°22.375 2°45.968 7.4424 3.402879 32.965576 -2.458615
2012-01-18 14:25:59 51°22.471 2°46.221 7.4309 3.398842 32.931823 -2.458615
2012-01-18 14:26:59 51°22.608 2°46.431 7.419 3.395219 32.903388 -2.458615
2012-01-18 14:27:59 51°22.759 2°46.619 7.4223 3.392632 32.887831 -2.458615
2012-01-18 14:28:59 51°22.9 2°46.833 7.39 3.38787 32.840115 -2.458615
2012-01-18 14:29:59 51°23.033 2°47.054 7.3786 3.38135 32.798846 -2.458615
2012-01-18 14:30:59 51°23.164 2°47.278 7.3357 3.37721 32.771784 -2.458615
2012-01-18 14:31:59 51°23.304 2°47.487 7.3244 3.370172 32.720484 -2.458615
2012-01-18 14:32:59 51°23.438 2°47.702 7.2981 3.364894 32.676732 -2.458615
2012-01-18 14:33:59 51°23.572 2°47.921 7.3084 3.361168 32.653184 -2.458615
2012-01-18 14:34:59 51°23.708 2°48.132 7.2975 3.361064 32.657311 -2.458615
2012-01-18 14:35:59 51°23.841 2°48.356 7.2863 3.360029 32.64965 -2.458615
2012-01-18 14:36:59 51°23.973 2°48.572 7.2674 3.358477 32.646022 -2.458615
2012-01-18 14:37:59 51°24.105 2°48.792 7.257 3.355372 32.629142 -2.458615
2012-01-18 14:39:00 51°24.242 2°49.009 7.256 3.355993 32.634093 -2.458615
2012-01-18 14:40:00 51°24.374 2°49.223 7.2601 3.35382 32.620261 -2.458615
2012-01-18 14:41:00 51°24.515 2°49.421 7.2571 3.354027 32.624243 -2.458615
2012-01-18 14:42:00 51°24.66 2°49.613 7.2597 3.352992 32.611328 -2.458615
2012-01-18 14:43:00 51°24.81 2°49.799 7.2538 3.352888 32.613707 -2.458615
2012-01-18 14:43:59 51°24.953 2°49.99 7.2472 3.352992 32.61395 -2.458615
2012-01-18 14:44:59 51°25.097 2°50.179 7.2425 3.350818 32.595741 -2.458615
2012-01-18 14:45:59 51°25.239 2°50.374 7.2274 3.348128 32.582427 -2.458615
2012-01-18 14:47:00 51°25.383 2°50.568 7.2279 3.348024 32.590051 -2.458615
2012-01-18 14:47:59 51°25.528 2°50.752 7.2258 3.347921 32.589808 -2.458615
2012-01-18 14:48:59 51°25.675 2°50.943 7.1891 3.348542 32.602636 -2.458615
2012-01-18 14:49:59 51°25.85 2°51.048 7.1747 3.344609 32.589899 -2.458615
2012-01-18 14:50:59 51°26.034 2°51.126 7.19 3.343988 32.586689 -2.458615
2012-01-18 14:51:59 51°26.217 2°51.218 7.1931 3.343781 32.587078 -2.458615
2012-01-18 14:52:59 51°26.4 2°51.316 7.2051 3.345023 32.595249 -2.458615
2012-01-18 14:54:00 51°26.58 2°51.451 7.2045 3.346058 32.593303 -2.458615
2012-01-18 14:55:00 51°26.705 2°51.567 7.2177 3.349784 32.624804 -2.458615
2012-01-18 14:56:00 51°26.724 2°51.663 7.2332 3.353717 32.656778 -2.458615
2012-01-18 14:57:00 51°26.725 2°51.699 7.2482 3.359719 32.702326 -2.458615
2012-01-18 14:58:02 51°26.729 2°51.673 7.252 3.362203 32.720377 -2.458615
2012-01-18 14:59:00 51°26.732 2°51.663 7.2723 3.364377 32.734192 -2.458615
2012-01-18 15:00:00 51°26.733 2°51.663 7.2922 3.369345 32.77114 -2.458615
2012-01-18 15:01:00 51°26.731 2°51.667 7.3022 3.372139 32.783737 -2.458615
2012-01-18 15:02:00 51°26.73 2°51.67 7.3087 3.374106 32.799683 -2.458615
2012-01-18 15:03:00 51°26.73 2°51.677 7.3152 3.377832 32.830212 -2.458615
2012-01-18 15:04:00 51°26.728 2°51.679 7.3225 3.379488 32.840165 -2.458615
2012-01-18 15:05:00 51°26.73 2°51.681 7.3272 3.380316 32.847337 -2.458615
2012-01-18 15:06:00 51°26.732 2°51.681 7.3279 3.381247 32.853867 -2.458615
2012-01-18 15:07:00 51°26.734 2°51.68 7.3286 3.381661 32.854816 -2.458615
2012-01-18 15:08:00 51°26.734 2°51.679 7.3308 3.381972 32.858164 -2.458615
2012-01-18 15:09:00 51°26.736 2°51.681 7.3346 3.382386 32.859113 -2.458615
2012-01-18 15:10:00 51°26.734 2°51.685 7.3318 3.382903 32.862056 -2.458615
2012-01-18 15:11:00 51°26.734 2°51.687 7.3377 3.382903 32.863813 -2.458615
2012-01-18 15:12:00 51°26.735 2°51.688 7.3382 3.383317 32.86564 -2.458615
2012-01-18 15:13:00 51°26.736 2°51.687 7.3371 3.383524 32.865236 -2.458615
2012-01-18 15:14:00 51°26.738 2°51.686 7.3415 3.383835 32.865068 -2.458615
2012-01-18 15:15:00 51°26.74 2°51.684 7.3391 3.384042 32.868178 -2.458615
2012-01-18 15:16:00 51°26.741 2°51.687 7.339 3.384042 32.869935 -2.458615
2012-01-18 15:17:00 51°26.741 2°51.69 7.3336 3.385077 32.881971 -2.458615
2012-01-18 15:18:00 51°26.743 2°51.691 7.3384 3.384456 32.877914 -2.458615
2012-01-18 15:19:00 51°26.746 2°51.69 7.3291 3.384249 32.875682 -2.458615
2012-01-18 15:20:00 51°26.747 2°51.689 7.3294 3.383524 32.874024 -2.458615
2012-01-18 15:21:00 51°26.747 2°51.689 7.3296 3.383421 32.870271 -2.458615
2012-01-18 15:22:00 51°26.748 2°51.691 7.3316 3.383421 32.868513 -2.458615
2012-01-18 15:23:00 51°26.746 2°51.694 7.3277 3.383317 32.866519 -2.458615
2012-01-18 15:24:00 51°26.744 2°51.697 7.3263 3.3828 32.867091 -2.458615
2012-01-18 15:25:00 51°26.742 2°51.7 7.3297 3.382489 32.864622 -2.458615
2012-01-18 15:26:00 51°26.741 2°51.701 7.326 3.382696 32.868612 -2.458615
2012-01-18 15:26:59 51°26.742 2°51.7 7.329 3.382489 32.865501 -2.458615
2012-01-18 15:28:00 51°26.742 2°51.7 7.3226 3.382593 32.865738 -2.458615
2012-01-18 15:29:00 51°26.744 2°51.699 7.3292 3.382489 32.864622 -2.458615
2012-01-18 15:30:00 51°26.745 2°51.698 7.3271 3.382696 32.864218 -2.458615
2012-01-18 15:31:00 51°26.744 2°51.7 7.3277 3.382593 32.866617 -2.458615
2012-01-18 15:32:00 51°26.744 2°51.7 7.3505 3.385077 32.890764 -2.458615
2012-01-18 15:33:00 51°26.744 2°51.7 7.3222 3.384456 32.878793 -2.458615
2012-01-18 15:33:59 51°26.748 2°51.694 7.3245 3.383835 32.879131 -2.458615
2012-01-18 15:34:59 51°26.75 2°51.69 7.3261 3.383938 32.877609 -2.458615
2012-01-18 15:35:59 51°26.748 2°51.694 7.3297 3.383731 32.878894 -2.458615
2012-01-18 15:36:59 51°26.739 2°51.704 7.3286 3.383628 32.876019 -2.458615
2012-01-18 15:37:59 51°26.736 2°51.708 7.3351 3.383214 32.873313 -2.458615
2012-01-18 15:38:59 51°26.737 2°51.71 7.3166 3.383007 32.869323 -2.458615
2012-01-18 15:39:59 51°26.737 2°51.715 7.3142 3.381868 32.864958 -2.458615
2012-01-18 15:40:59 51°26.723 2°51.737 7.3095 3.381247 32.861777 -2.458615
2012-01-18 15:41:59 51°26.663 2°51.747 7.3072 3.380419 32.855484 -2.458615
2012-01-18 15:42:59 51°26.498 2°51.761 7.2994 3.378453 32.843062 -2.458615
2012-01-18 15:44:00 51°26.289 2°51.759 7.272 3.377521 32.825107 -2.458615
2012-01-18 15:45:00 51°26.085 2°51.721 7.2303 3.366757 32.746726 -2.458615
2012-01-18 15:46:00 51°25.88 2°51.702 7.2183 3.359202 32.696738 -2.458615
2012-01-18 15:46:59 51°25.679 2°51.698 7.1346 3.352475 32.658261 -2.458615
2012-01-18 15:47:59 51°25.474 2°51.696 7.1331 3.340884 32.58815 -2.458615
2012-01-18 15:48:59 51°25.267 2°51.682 7.1118 3.332294 32.510971 -2.458615
2012-01-18 15:49:59 51°25.059 2°51.668 7.1092 3.330534 32.496307 -2.458615
2012-01-18 15:50:59 51°24.852 2°51.655 7.0867 3.328672 32.486642 -2.458615
2012-01-18 15:51:59 51°24.645 2°51.647 7.088 3.325774 32.468392 -2.458615
2012-01-18 15:52:59 51°24.438 2°51.64 7.0905 3.324222 32.449838 -2.458615
2012-01-18 15:53:59 51°24.229 2°51.63 7.0844 3.324429 32.450331 -2.458615
2012-01-18 15:54:59 51°24.021 2°51.618 7.1017 3.324118 32.45134 -2.458615
2012-01-18 15:55:59 51°23.813 2°51.623 7.1003 3.324739 32.444954 -2.458615
2012-01-18 15:56:59 51°23.605 2°51.616 7.1021 3.317702 32.375783 -2.458615
2012-01-18 15:57:59 51°23.399 2°51.613 7.0982 3.314597 32.343933 -2.458615
2012-01-18 15:58:59 51°23.192 2°51.609 7.0877 3.311803 32.315443 -2.458615
2012-01-18 15:59:59 51°22.983 2°51.613 7.0866 3.309733 32.300011 -2.458615
2012-01-18 16:00:59 51°22.775 2°51.609 7.0788 3.308284 32.285204 -2.458615
2012-01-18 16:01:59 51°22.566 2°51.6 7.0764 3.305697 32.264167 -2.458615
2012-01-18 16:02:59 51°22.357 2°51.595 7.0746 3.303317 32.238412 -2.458615
2012-01-18 16:03:59 51°22.149 2°51.602 7.0786 3.301868 32.227079 -2.458615
2012-01-18 16:04:59 51°21.943 2°51.597 7.0833 3.300833 32.207203 -2.458615
2012-01-18 16:05:59 51°21.736 2°51.596 7.061 3.298556 32.188647 -2.458615
2012-01-18 16:06:59 51°21.534 2°51.654 7.0394 3.293072 32.146646 -2.458615
2012-01-18 16:07:59 51°21.329 2°51.703 7.0182 3.288001 32.104766 -2.458615
2012-01-18 16:08:59 51°21.123 2°51.747 6.9787 3.282517 32.076562 -2.458615
2012-01-18 16:09:59 51°20.917 2°51.789 6.9685 3.276411 32.038127 -2.458615
2012-01-18 16:10:59 51°20.71 2°51.809 6.9166 3.269892 31.992562 -2.458615
2012-01-18 16:11:59 51°20.506 2°51.836 6.873 3.26089 31.936437 -2.458615
2012-01-18 16:12:59 51°20.303 2°51.879 6.8327 3.249404 31.848919 -2.458615
2012-01-18 16:13:59 51°20.1 2°51.908 6.7747 3.236677 31.757262 -2.458615
2012-01-18 16:14:59 51°19.895 2°51.917 6.7146 3.224054 31.663966 -2.458615
2012-01-18 16:15:59 51°19.69 2°51.934 6.903 3.217942 30.996161 -2.458615
2012-01-18 16:16:59 51°19.484 2°51.949 7.1695 0.404119 2.578332 -2.458615
2012-01-18 16:17:59 51°19.278 2°51.971 11.8495 0.125687 0.76327 -2.458615
2012-01-18 16:18:59 51°19.073 2°51.991 15.3885 0.07335 0.445554 -2.458615
2012-01-18 16:19:59 51°18.868 2°52.007 15.3157 0.061321 0.376514 -2.458615
2012-01-18 16:20:59 51°18.665 2°52.02 14.7113 0.058545 0.362347 -2.458615
2012-01-18 16:21:59 51°18.46 2°52.054 14.4553 0.057311 0.35859 -2.458615
2012-01-18 16:22:59 51°18.256 2°52.097 14.0438 0.056077 0.353282 -2.458615
2012-01-18 16:23:59 51°18.052 2°52.135 13.6273 0.055255 0.349997 -2.458615
2012-01-18 16:24:59 51°17.848 2°52.171 13.3747 0.054432 0.349438 -2.458615
2012-01-18 16:25:59 51°17.643 2°52.202 13.0143 0.054227 0.350361 -2.458615
2012-01-18 16:26:59 51°17.439 2°52.25 13.0593 0.054432 0.351379 -2.458615
2012-01-18 16:27:59 51°17.251 2°52.368 13.0856 0.054741 0.3534 -2.458615
2012-01-18 16:28:59 51°17.083 2°52.552 13.1372 0.055255 0.356929 -2.458615
2012-01-18 16:29:59 51°16.926 2°52.763 13.1545 0.055872 0.360855 -2.458615
2012-01-18 16:30:59 51°16.773 2°52.978 13.1913 0.056694 0.366509 -2.458615
2012-01-18 16:31:59 51°16.63 2°53.215 13.217 0.057825 0.374173 -2.458615
2012-01-18 16:32:59 51°16.485 2°53.447 13.2438 0.059059 0.382453 -2.458615
2012-01-18 16:33:59 51°16.34 2°53.677 13.2624 0.059984 0.388526 -2.458615
2012-01-18 16:34:59 51°16.215 2°53.928 13.2923 0.060396 0.3912 -2.458615
2012-01-18 16:35:59 51°16.167 2°54.157 13.3209 0.060807 0.394066 -2.458615
2012-01-18 16:36:59 51°16.183 2°54.293 13.3467 0.061115 0.396103 -2.458615
2012-01-18 16:37:59 51°16.242 2°54.3 13.3796 0.061424 0.39814 -2.458615
2012-01-18 16:38:59 51°16.263 2°54.291 13.4084 0.061629 0.399522 -2.458615
2012-01-18 16:39:59 51°16.269 2°54.304 13.4351 0.061732 0.400195 -2.458615
2012-01-18 16:40:59 51°16.275 2°54.319 13.4841 0.061732 0.400168 -2.458615
2012-01-18 16:42:00 51°16.285 2°54.331 13.5121 0.061629 0.39946 -2.458615
2012-01-18 16:43:00 51°16.297 2°54.263 13.554 0.061527 0.398742 -2.458615
2012-01-18 16:44:00 51°16.196 2°54.153 13.593 0.061424 0.398043 -2.458615
2012-01-18 16:45:00 51°16.009 2°54.17 13.6519 0.061218 0.396644 -2.458615
2012-01-18 16:46:00 51°15.815 2°54.243 13.7261 0.061115 0.395919 -2.458615
2012-01-18 16:47:00 51°15.618 2°54.287 13.7945 0.061012 0.395211 -2.458615
2012-01-18 16:48:00 51°15.422 2°54.336 13.8519 0.06091 0.394494 -2.458615
2012-01-18 16:49:00 51°15.231 2°54.414 13.9631 0.060807 0.393787 -2.458615
2012-01-18 16:50:00 51°15.04 2°54.5 14.0514 0.060704 0.393079 -2.458615
2012-01-18 16:51:00 51°14.862 2°54.642 14.1078 0.060601 0.392381 -2.458615
2012-01-18 16:52:00 51°14.698 2°54.828 14.1231 0.060498 0.391674 -2.458615
2012-01-18 16:53:00 51°14.541 2°55.025 14.2004 0.060396 0.390958 -2.458615
2012-01-18 16:54:03 51°14.373 2°55.205 14.2598 0.060293 0.390251 -2.458615
2012-01-18 16:55:03 51°14.236 2°55.333 14.3145 0.06019 0.389535 -2.458615
2012-01-18 16:56:04 51°14.102 2°55.434 14.415 0.060087 0.388829 -2.458615
2012-01-18 16:57:03 51°13.984 2°55.518 9.2906 0.059984 0.388139 -2.458615
2012-01-18 16:58:03 51°13.867 2°55.601 9.261 0.059881 0.387433 -2.458615
2012-01-18 16:59:02 51°13.775 2°55.687 8.9999 0.059779 0.386727 -2.458615
2012-01-18 17:00:03 51°13.711 2°55.796 8.8457 0.059676 0.386021 -2.458615
2012-01-18 17:01:04 51°13.663 2°55.902 8.763 0.059676 0.386003 -2.458615
2012-01-18 17:02:03 51°13.641 2°55.994 8.5436 0.059573 0.385297 -2.458615
2012-01-18 17:03:02 51°13.636 2°56.018 8.4366 0.05947 0.384583 -2.458615